sensor_id;sensor_type;location;lat;lon;timestamp;P1;durP1;ratioP1;P2;durP2;ratioP2
33814;SDS011;20121;51.910;8.406;2023-02-18T00:01:54;4.07;;;3.67;;
33814;SDS011;20121;51.910;8.406;2023-02-18T00:04:20;4.37;;;2.73;;
33814;SDS011;20121;51.910;8.406;2023-02-18T00:06:46;5.97;;;3.60;;
33814;SDS011;20121;51.910;8.406;2023-02-18T00:09:11;4.10;;;3.50;;
33814;SDS011;20121;51.910;8.406;2023-02-18T00:11:37;7.07;;;5.30;;
33814;SDS011;20121;51.910;8.406;2023-02-18T00:14:04;4.93;;;2.93;;
33814;SDS011;20121;51.910;8.406;2023-02-18T00:16:32;5.00;;;3.42;;
33814;SDS011;20121;51.910;8.406;2023-02-18T00:18:59;15.13;;;5.93;;
33814;SDS011;20121;51.910;8.406;2023-02-18T00:21:26;5.63;;;4.03;;
33814;SDS011;20121;51.910;8.406;2023-02-18T00:23:52;4.45;;;3.35;;
33814;SDS011;20121;51.910;8.406;2023-02-18T00:26:18;11.10;;;3.57;;
33814;SDS011;20121;51.910;8.406;2023-02-18T00:28:45;2.38;;;2.00;;
33814;SDS011;20121;51.910;8.406;2023-02-18T00:31:16;3.97;;;3.42;;
33814;SDS011;20121;51.910;8.406;2023-02-18T00:34:03;7.45;;;4.95;;
33814;SDS011;20121;51.910;8.406;2023-02-18T00:36:29;13.52;;;5.65;;
33814;SDS011;20121;51.910;8.406;2023-02-18T00:38:59;7.67;;;4.37;;
33814;SDS011;20121;51.910;8.406;2023-02-18T00:41:28;23.75;;;5.32;;
33814;SDS011;20121;51.910;8.406;2023-02-18T00:43:54;11.70;;;3.78;;
33814;SDS011;20121;51.910;8.406;2023-02-18T00:46:20;5.25;;;4.18;;
33814;SDS011;20121;51.910;8.406;2023-02-18T00:48:46;10.30;;;4.88;;
33814;SDS011;20121;51.910;8.406;2023-02-18T00:51:12;15.20;;;4.73;;
33814;SDS011;20121;51.910;8.406;2023-02-18T00:53:38;6.57;;;5.18;;
33814;SDS011;20121;51.910;8.406;2023-02-18T00:56:04;11.52;;;6.40;;
33814;SDS011;20121;51.910;8.406;2023-02-18T00:58:31;3.92;;;3.25;;
33814;SDS011;20121;51.910;8.406;2023-02-18T01:00:57;6.55;;;4.35;;
33814;SDS011;20121;51.910;8.406;2023-02-18T01:03:23;6.00;;;3.83;;
33814;SDS011;20121;51.910;8.406;2023-02-18T01:05:49;7.35;;;5.25;;
33814;SDS011;20121;51.910;8.406;2023-02-18T01:08:16;12.30;;;6.88;;
33814;SDS011;20121;51.910;8.406;2023-02-18T01:10:43;12.10;;;4.50;;
33814;SDS011;20121;51.910;8.406;2023-02-18T01:13:11;5.80;;;4.43;;
33814;SDS011;20121;51.910;8.406;2023-02-18T01:15:38;7.88;;;5.03;;
33814;SDS011;20121;51.910;8.406;2023-02-18T01:18:04;9.32;;;5.13;;
33814;SDS011;20121;51.910;8.406;2023-02-18T01:20:31;23.02;;;7.10;;
33814;SDS011;20121;51.910;8.406;2023-02-18T01:22:58;9.50;;;5.05;;
33814;SDS011;20121;51.910;8.406;2023-02-18T01:25:23;11.53;;;5.57;;
33814;SDS011;20121;51.910;8.406;2023-02-18T01:27:49;11.73;;;5.50;;
33814;SDS011;20121;51.910;8.406;2023-02-18T01:30:15;8.10;;;4.30;;
33814;SDS011;20121;51.910;8.406;2023-02-18T01:32:42;7.20;;;5.28;;
33814;SDS011;20121;51.910;8.406;2023-02-18T01:35:12;8.30;;;5.18;;
33814;SDS011;20121;51.910;8.406;2023-02-18T01:37:39;7.82;;;4.63;;
33814;SDS011;20121;51.910;8.406;2023-02-18T01:40:06;6.75;;;5.15;;
33814;SDS011;20121;51.910;8.406;2023-02-18T01:42:33;8.70;;;5.20;;
33814;SDS011;20121;51.910;8.406;2023-02-18T01:48:05;11.48;;;4.07;;
33814;SDS011;20121;51.910;8.406;2023-02-18T01:50:32;6.95;;;4.63;;
33814;SDS011;20121;51.910;8.406;2023-02-18T01:53:02;10.80;;;5.30;;
33814;SDS011;20121;51.910;8.406;2023-02-18T01:55:29;13.57;;;4.28;;
33814;SDS011;20121;51.910;8.406;2023-02-18T01:57:55;11.02;;;5.88;;
33814;SDS011;20121;51.910;8.406;2023-02-18T02:00:21;10.67;;;6.27;;
33814;SDS011;20121;51.910;8.406;2023-02-18T02:02:48;6.40;;;5.30;;
33814;SDS011;20121;51.910;8.406;2023-02-18T02:05:15;6.35;;;4.82;;
33814;SDS011;20121;51.910;8.406;2023-02-18T02:07:42;10.93;;;5.60;;
33814;SDS011;20121;51.910;8.406;2023-02-18T02:10:10;9.00;;;5.50;;
33814;SDS011;20121;51.910;8.406;2023-02-18T02:15:23;9.55;;;6.60;;
33814;SDS011;20121;51.910;8.406;2023-02-18T02:23:45;14.88;;;5.97;;
33814;SDS011;20121;51.910;8.406;2023-02-18T02:29:43;19.42;;;9.00;;
33814;SDS011;20121;51.910;8.406;2023-02-18T02:32:24;16.55;;;8.43;;
33814;SDS011;20121;51.910;8.406;2023-02-18T02:35:09;10.98;;;6.88;;
33814;SDS011;20121;51.910;8.406;2023-02-18T02:37:47;7.28;;;5.43;;
33814;SDS011;20121;51.910;8.406;2023-02-18T02:40:45;11.90;;;5.55;;
33814;SDS011;20121;51.910;8.406;2023-02-18T02:46:18;12.27;;;6.55;;
33814;SDS011;20121;51.910;8.406;2023-02-18T02:48:57;12.18;;;7.13;;
33814;SDS011;20121;51.910;8.406;2023-02-18T02:51:36;13.32;;;7.97;;
33814;SDS011;20121;51.910;8.406;2023-02-18T02:54:12;12.07;;;7.10;;
33814;SDS011;20121;51.910;8.406;2023-02-18T02:56:38;15.57;;;7.85;;
33814;SDS011;20121;51.910;8.406;2023-02-18T02:59:05;11.70;;;7.53;;
33814;SDS011;20121;51.910;8.406;2023-02-18T03:04:50;14.55;;;8.05;;
33814;SDS011;20121;51.910;8.406;2023-02-18T03:15:27;12.90;;;4.55;;
33814;SDS011;20121;51.910;8.406;2023-02-18T03:20:42;10.73;;;6.10;;
33814;SDS011;20121;51.910;8.406;2023-02-18T03:23:19;11.00;;;5.50;;
33814;SDS011;20121;51.910;8.406;2023-02-18T03:25:51;13.90;;;7.38;;
33814;SDS011;20121;51.910;8.406;2023-02-18T03:28:18;12.80;;;5.18;;
33814;SDS011;20121;51.910;8.406;2023-02-18T03:30:47;7.45;;;4.93;;
33814;SDS011;20121;51.910;8.406;2023-02-18T03:33:50;13.13;;;6.45;;
33814;SDS011;20121;51.910;8.406;2023-02-18T03:36:12;14.13;;;5.72;;
33814;SDS011;20121;51.910;8.406;2023-02-18T03:38:39;12.87;;;7.17;;
33814;SDS011;20121;51.910;8.406;2023-02-18T03:41:12;8.90;;;5.80;;
33814;SDS011;20121;51.910;8.406;2023-02-18T03:43:39;6.63;;;5.03;;
33814;SDS011;20121;51.910;8.406;2023-02-18T03:46:05;10.57;;;6.25;;
33814;SDS011;20121;51.910;8.406;2023-02-18T03:48:31;8.88;;;4.85;;
33814;SDS011;20121;51.910;8.406;2023-02-18T03:50:57;6.90;;;5.37;;
33814;SDS011;20121;51.910;8.406;2023-02-18T03:53:22;17.03;;;7.53;;
33814;SDS011;20121;51.910;8.406;2023-02-18T03:55:48;9.10;;;5.00;;
33814;SDS011;20121;51.910;8.406;2023-02-18T03:58:13;9.47;;;5.60;;
33814;SDS011;20121;51.910;8.406;2023-02-18T04:00:39;10.17;;;7.03;;
33814;SDS011;20121;51.910;8.406;2023-02-18T04:03:05;10.17;;;6.13;;
33814;SDS011;20121;51.910;8.406;2023-02-18T04:05:30;11.30;;;5.23;;
33814;SDS011;20121;51.910;8.406;2023-02-18T04:07:56;6.63;;;5.60;;
33814;SDS011;20121;51.910;8.406;2023-02-18T04:10:21;16.33;;;6.83;;
33814;SDS011;20121;51.910;8.406;2023-02-18T04:12:47;9.98;;;5.97;;
33814;SDS011;20121;51.910;8.406;2023-02-18T04:15:13;12.70;;;7.30;;
33814;SDS011;20121;51.910;8.406;2023-02-18T04:17:38;11.90;;;7.10;;
33814;SDS011;20121;51.910;8.406;2023-02-18T04:20:04;14.23;;;8.50;;
33814;SDS011;20121;51.910;8.406;2023-02-18T04:22:31;18.55;;;8.23;;
33814;SDS011;20121;51.910;8.406;2023-02-18T04:24:56;11.43;;;6.47;;
33814;SDS011;20121;51.910;8.406;2023-02-18T04:27:23;10.98;;;8.73;;
33814;SDS011;20121;51.910;8.406;2023-02-18T04:29:49;14.43;;;7.20;;
33814;SDS011;20121;51.910;8.406;2023-02-18T04:32:14;16.27;;;8.40;;
33814;SDS011;20121;51.910;8.406;2023-02-18T04:34:40;11.73;;;7.10;;
33814;SDS011;20121;51.910;8.406;2023-02-18T04:37:06;16.93;;;5.97;;
33814;SDS011;20121;51.910;8.406;2023-02-18T04:39:31;14.70;;;7.70;;
33814;SDS011;20121;51.910;8.406;2023-02-18T04:41:57;20.50;;;10.57;;
33814;SDS011;20121;51.910;8.406;2023-02-18T04:44:22;14.77;;;8.90;;
33814;SDS011;20121;51.910;8.406;2023-02-18T04:46:48;10.10;;;6.30;;
33814;SDS011;20121;51.910;8.406;2023-02-18T04:49:14;16.33;;;8.67;;
33814;SDS011;20121;51.910;8.406;2023-02-18T04:51:39;16.53;;;7.87;;
33814;SDS011;20121;51.910;8.406;2023-02-18T04:54:05;15.20;;;6.70;;
33814;SDS011;20121;51.910;8.406;2023-02-18T04:56:30;14.93;;;6.57;;
33814;SDS011;20121;51.910;8.406;2023-02-18T04:58:56;14.10;;;7.03;;
33814;SDS011;20121;51.910;8.406;2023-02-18T05:01:22;10.93;;;6.70;;
33814;SDS011;20121;51.910;8.406;2023-02-18T05:03:47;15.00;;;7.73;;
33814;SDS011;20121;51.910;8.406;2023-02-18T05:06:13;16.00;;;7.23;;
33814;SDS011;20121;51.910;8.406;2023-02-18T05:08:38;17.20;;;8.43;;
33814;SDS011;20121;51.910;8.406;2023-02-18T05:11:05;13.67;;;9.47;;
33814;SDS011;20121;51.910;8.406;2023-02-18T05:13:31;11.00;;;6.20;;
33814;SDS011;20121;51.910;8.406;2023-02-18T05:15:57;9.97;;;7.90;;
33814;SDS011;20121;51.910;8.406;2023-02-18T05:18:23;10.47;;;6.33;;
33814;SDS011;20121;51.910;8.406;2023-02-18T05:20:48;10.77;;;7.30;;
33814;SDS011;20121;51.910;8.406;2023-02-18T05:23:14;7.87;;;5.53;;
33814;SDS011;20121;51.910;8.406;2023-02-18T05:25:39;14.47;;;8.70;;
33814;SDS011;20121;51.910;8.406;2023-02-18T05:28:05;9.37;;;6.40;;
33814;SDS011;20121;51.910;8.406;2023-02-18T05:30:31;7.10;;;4.13;;
33814;SDS011;20121;51.910;8.406;2023-02-18T05:32:56;11.27;;;4.00;;
33814;SDS011;20121;51.910;8.406;2023-02-18T05:35:22;11.63;;;6.23;;
33814;SDS011;20121;51.910;8.406;2023-02-18T05:37:47;7.67;;;4.83;;
33814;SDS011;20121;51.910;8.406;2023-02-18T05:40:13;9.50;;;4.90;;
33814;SDS011;20121;51.910;8.406;2023-02-18T05:42:39;10.05;;;5.45;;
33814;SDS011;20121;51.910;8.406;2023-02-18T05:45:05;12.10;;;7.57;;
33814;SDS011;20121;51.910;8.406;2023-02-18T05:47:30;12.23;;;5.87;;
33814;SDS011;20121;51.910;8.406;2023-02-18T05:49:56;5.90;;;4.73;;
33814;SDS011;20121;51.910;8.406;2023-02-18T05:52:22;7.03;;;3.90;;
33814;SDS011;20121;51.910;8.406;2023-02-18T05:54:47;8.03;;;5.43;;
33814;SDS011;20121;51.910;8.406;2023-02-18T05:57:13;8.63;;;3.97;;
33814;SDS011;20121;51.910;8.406;2023-02-18T05:59:39;8.85;;;4.93;;
33814;SDS011;20121;51.910;8.406;2023-02-18T06:02:05;6.57;;;3.15;;
33814;SDS011;20121;51.910;8.406;2023-02-18T06:04:31;4.77;;;4.33;;
33814;SDS011;20121;51.910;8.406;2023-02-18T06:06:56;11.63;;;4.63;;
33814;SDS011;20121;51.910;8.406;2023-02-18T06:09:22;9.00;;;6.47;;
33814;SDS011;20121;51.910;8.406;2023-02-18T06:11:47;8.67;;;3.70;;
33814;SDS011;20121;51.910;8.406;2023-02-18T06:14:13;4.73;;;4.23;;
33814;SDS011;20121;51.910;8.406;2023-02-18T06:16:39;8.57;;;3.63;;
33814;SDS011;20121;51.910;8.406;2023-02-18T06:19:04;8.73;;;4.43;;
33814;SDS011;20121;51.910;8.406;2023-02-18T06:21:30;9.20;;;3.87;;
33814;SDS011;20121;51.910;8.406;2023-02-18T06:23:56;5.40;;;3.27;;
33814;SDS011;20121;51.910;8.406;2023-02-18T06:26:22;9.30;;;3.53;;
33814;SDS011;20121;51.910;8.406;2023-02-18T06:28:47;3.33;;;2.10;;
33814;SDS011;20121;51.910;8.406;2023-02-18T06:31:13;4.30;;;2.00;;
33814;SDS011;20121;51.910;8.406;2023-02-18T06:33:39;5.33;;;2.73;;
33814;SDS011;20121;51.910;8.406;2023-02-18T06:36:05;2.50;;;2.20;;
33814;SDS011;20121;51.910;8.406;2023-02-18T06:38:35;3.03;;;2.50;;
33814;SDS011;20121;51.910;8.406;2023-02-18T06:41:01;4.28;;;2.28;;
33814;SDS011;20121;51.910;8.406;2023-02-18T06:43:27;2.92;;;1.70;;
33814;SDS011;20121;51.910;8.406;2023-02-18T06:45:53;2.33;;;1.50;;
33814;SDS011;20121;51.910;8.406;2023-02-18T06:48:19;4.30;;;3.10;;
33814;SDS011;20121;51.910;8.406;2023-02-18T06:50:45;2.22;;;1.75;;
33814;SDS011;20121;51.910;8.406;2023-02-18T06:53:11;4.10;;;2.33;;
33814;SDS011;20121;51.910;8.406;2023-02-18T06:55:37;3.03;;;1.75;;
33814;SDS011;20121;51.910;8.406;2023-02-18T06:58:02;3.47;;;2.23;;
33814;SDS011;20121;51.910;8.406;2023-02-18T07:00:28;2.43;;;1.90;;
33814;SDS011;20121;51.910;8.406;2023-02-18T07:02:54;2.80;;;2.00;;
33814;SDS011;20121;51.910;8.406;2023-02-18T07:05:19;2.67;;;2.47;;
33814;SDS011;20121;51.910;8.406;2023-02-18T07:07:45;4.20;;;2.53;;
33814;SDS011;20121;51.910;8.406;2023-02-18T07:10:11;2.03;;;1.73;;
33814;SDS011;20121;51.910;8.406;2023-02-18T07:12:37;1.63;;;1.35;;
33814;SDS011;20121;51.910;8.406;2023-02-18T07:15:02;2.93;;;1.60;;
33814;SDS011;20121;51.910;8.406;2023-02-18T07:17:29;1.13;;;1.00;;
33814;SDS011;20121;51.910;8.406;2023-02-18T07:19:54;1.80;;;1.60;;
33814;SDS011;20121;51.910;8.406;2023-02-18T07:22:20;2.13;;;1.83;;
33814;SDS011;20121;51.910;8.406;2023-02-18T07:24:49;1.60;;;1.45;;
33814;SDS011;20121;51.910;8.406;2023-02-18T07:27:19;1.95;;;1.75;;
33814;SDS011;20121;51.910;8.406;2023-02-18T07:29:45;1.55;;;1.45;;
33814;SDS011;20121;51.910;8.406;2023-02-18T07:32:12;2.87;;;1.67;;
33814;SDS011;20121;51.910;8.406;2023-02-18T07:34:38;1.55;;;1.30;;
33814;SDS011;20121;51.910;8.406;2023-02-18T07:37:04;1.50;;;1.40;;
33814;SDS011;20121;51.910;8.406;2023-02-18T07:39:38;1.80;;;1.70;;
33814;SDS011;20121;51.910;8.406;2023-02-18T07:42:04;1.30;;;1.20;;
33814;SDS011;20121;51.910;8.406;2023-02-18T07:44:30;11.40;;;2.37;;
33814;SDS011;20121;51.910;8.406;2023-02-18T07:46:55;2.10;;;1.57;;
33814;SDS011;20121;51.910;8.406;2023-02-18T07:49:21;1.30;;;1.20;;
33814;SDS011;20121;51.910;8.406;2023-02-18T07:51:47;1.92;;;1.55;;
33814;SDS011;20121;51.910;8.406;2023-02-18T07:54:13;2.92;;;1.45;;
33814;SDS011;20121;51.910;8.406;2023-02-18T07:56:39;1.97;;;1.87;;
33814;SDS011;20121;51.910;8.406;2023-02-18T07:59:07;1.67;;;1.45;;
33814;SDS011;20121;51.910;8.406;2023-02-18T08:01:33;3.33;;;2.08;;
33814;SDS011;20121;51.910;8.406;2023-02-18T08:03:58;2.00;;;1.73;;
33814;SDS011;20121;51.910;8.406;2023-02-18T08:06:25;2.43;;;1.70;;
33814;SDS011;20121;51.910;8.406;2023-02-18T08:08:55;3.65;;;2.67;;
33814;SDS011;20121;51.910;8.406;2023-02-18T08:11:20;3.97;;;2.60;;
33814;SDS011;20121;51.910;8.406;2023-02-18T08:13:46;3.43;;;2.50;;
33814;SDS011;20121;51.910;8.406;2023-02-18T08:16:13;1.98;;;1.88;;
33814;SDS011;20121;51.910;8.406;2023-02-18T08:18:39;3.83;;;2.13;;
33814;SDS011;20121;51.910;8.406;2023-02-18T08:21:05;2.60;;;2.20;;
33814;SDS011;20121;51.910;8.406;2023-02-18T08:23:31;3.30;;;2.50;;
33814;SDS011;20121;51.910;8.406;2023-02-18T08:25:56;2.27;;;2.10;;
33814;SDS011;20121;51.910;8.406;2023-02-18T08:28:22;2.00;;;1.80;;
33814;SDS011;20121;51.910;8.406;2023-02-18T08:30:49;2.70;;;1.92;;
33814;SDS011;20121;51.910;8.406;2023-02-18T08:33:16;3.47;;;1.95;;
33814;SDS011;20121;51.910;8.406;2023-02-18T08:35:43;1.55;;;1.45;;
33814;SDS011;20121;51.910;8.406;2023-02-18T08:38:10;2.17;;;1.83;;
33814;SDS011;20121;51.910;8.406;2023-02-18T08:40:36;4.85;;;4.13;;
33814;SDS011;20121;51.910;8.406;2023-02-18T08:43:01;2.47;;;2.20;;
33814;SDS011;20121;51.910;8.406;2023-02-18T08:45:27;2.07;;;1.97;;
33814;SDS011;20121;51.910;8.406;2023-02-18T08:47:53;2.57;;;2.37;;
33814;SDS011;20121;51.910;8.406;2023-02-18T08:50:18;4.23;;;1.73;;
33814;SDS011;20121;51.910;8.406;2023-02-18T08:52:46;2.17;;;1.65;;
33814;SDS011;20121;51.910;8.406;2023-02-18T08:55:11;7.20;;;3.28;;
33814;SDS011;20121;51.910;8.406;2023-02-18T08:57:38;5.53;;;2.70;;
33814;SDS011;20121;51.910;8.406;2023-02-18T09:00:04;2.60;;;2.30;;
33814;SDS011;20121;51.910;8.406;2023-02-18T09:02:30;3.72;;;3.42;;
33814;SDS011;20121;51.910;8.406;2023-02-18T09:04:56;3.20;;;2.43;;
33814;SDS011;20121;51.910;8.406;2023-02-18T09:07:21;6.80;;;1.93;;
33814;SDS011;20121;51.910;8.406;2023-02-18T09:09:47;2.60;;;2.40;;
33814;SDS011;20121;51.910;8.406;2023-02-18T09:12:13;2.37;;;2.17;;
33814;SDS011;20121;51.910;8.406;2023-02-18T09:14:38;1.63;;;1.37;;
33814;SDS011;20121;51.910;8.406;2023-02-18T09:17:05;1.83;;;1.73;;
33814;SDS011;20121;51.910;8.406;2023-02-18T09:19:30;2.37;;;1.70;;
33814;SDS011;20121;51.910;8.406;2023-02-18T09:21:56;1.90;;;1.80;;
33814;SDS011;20121;51.910;8.406;2023-02-18T09:24:22;3.80;;;1.43;;
33814;SDS011;20121;51.910;8.406;2023-02-18T09:26:49;2.55;;;2.35;;
33814;SDS011;20121;51.910;8.406;2023-02-18T09:29:15;2.72;;;2.50;;
33814;SDS011;20121;51.910;8.406;2023-02-18T09:31:41;2.90;;;2.70;;
33814;SDS011;20121;51.910;8.406;2023-02-18T09:34:06;2.10;;;2.00;;
33814;SDS011;20121;51.910;8.406;2023-02-18T09:36:32;5.53;;;2.60;;
33814;SDS011;20121;51.910;8.406;2023-02-18T09:38:58;3.40;;;2.67;;
33814;SDS011;20121;51.910;8.406;2023-02-18T09:41:44;4.85;;;3.05;;
33814;SDS011;20121;51.910;8.406;2023-02-18T09:50:19;2.10;;;2.00;;
33814;SDS011;20121;51.910;8.406;2023-02-18T09:52:46;3.40;;;3.10;;
33814;SDS011;20121;51.910;8.406;2023-02-18T09:55:19;2.70;;;2.50;;
33814;SDS011;20121;51.910;8.406;2023-02-18T09:57:49;3.92;;;2.30;;
33814;SDS011;20121;51.910;8.406;2023-02-18T10:00:19;3.78;;;3.38;;
33814;SDS011;20121;51.910;8.406;2023-02-18T10:02:56;2.97;;;2.53;;
33814;SDS011;20121;51.910;8.406;2023-02-18T10:05:24;2.35;;;2.15;;
33814;SDS011;20121;51.910;8.406;2023-02-18T10:07:53;2.70;;;2.08;;
33814;SDS011;20121;51.910;8.406;2023-02-18T10:10:33;4.13;;;2.38;;
33814;SDS011;20121;51.910;8.406;2023-02-18T10:13:12;4.38;;;3.63;;
33814;SDS011;20121;51.910;8.406;2023-02-18T10:15:43;3.80;;;2.47;;
33814;SDS011;20121;51.910;8.406;2023-02-18T10:18:20;3.13;;;2.92;;
33814;SDS011;20121;51.910;8.406;2023-02-18T10:20:53;2.17;;;1.95;;
33814;SDS011;20121;51.910;8.406;2023-02-18T10:23:31;4.03;;;3.28;;
33814;SDS011;20121;51.910;8.406;2023-02-18T10:26:00;2.53;;;1.83;;
33814;SDS011;20121;51.910;8.406;2023-02-18T10:28:30;2.63;;;2.42;;
33814;SDS011;20121;51.910;8.406;2023-02-18T10:30:57;2.50;;;2.30;;
33814;SDS011;20121;51.910;8.406;2023-02-18T10:36:42;2.05;;;1.85;;
33814;SDS011;20121;51.910;8.406;2023-02-18T10:44:01;3.15;;;2.33;;
33814;SDS011;20121;51.910;8.406;2023-02-18T10:52:19;3.90;;;2.95;;
33814;SDS011;20121;51.910;8.406;2023-02-18T10:57:23;3.75;;;2.05;;
33814;SDS011;20121;51.910;8.406;2023-02-18T10:59:53;3.22;;;2.25;;
33814;SDS011;20121;51.910;8.406;2023-02-18T11:02:22;4.25;;;3.03;;
33814;SDS011;20121;51.910;8.406;2023-02-18T11:04:50;3.10;;;2.65;;
33814;SDS011;20121;51.910;8.406;2023-02-18T11:07:20;2.73;;;2.33;;
33814;SDS011;20121;51.910;8.406;2023-02-18T11:09:52;4.80;;;3.92;;
33814;SDS011;20121;51.910;8.406;2023-02-18T11:12:32;3.05;;;2.85;;
33814;SDS011;20121;51.910;8.406;2023-02-18T11:17:37;2.90;;;2.67;;
33814;SDS011;20121;51.910;8.406;2023-02-18T11:22:50;3.30;;;2.80;;
33814;SDS011;20121;51.910;8.406;2023-02-18T11:25:20;3.67;;;2.95;;
33814;SDS011;20121;51.910;8.406;2023-02-18T11:27:58;3.78;;;3.47;;
33814;SDS011;20121;51.910;8.406;2023-02-18T11:30:46;2.42;;;2.20;;
33814;SDS011;20121;51.910;8.406;2023-02-18T11:33:17;4.28;;;3.92;;
33814;SDS011;20121;51.910;8.406;2023-02-18T11:35:53;6.70;;;3.05;;
33814;SDS011;20121;51.910;8.406;2023-02-18T11:38:36;3.92;;;3.35;;
33814;SDS011;20121;51.910;8.406;2023-02-18T11:41:07;3.08;;;2.33;;
33814;SDS011;20121;51.910;8.406;2023-02-18T11:43:35;3.45;;;3.15;;
33814;SDS011;20121;51.910;8.406;2023-02-18T11:46:13;6.00;;;2.97;;
33814;SDS011;20121;51.910;8.406;2023-02-18T11:48:44;3.13;;;2.80;;
33814;SDS011;20121;51.910;8.406;2023-02-18T11:56:34;3.33;;;1.67;;
33814;SDS011;20121;51.910;8.406;2023-02-18T11:59:00;3.35;;;2.80;;
33814;SDS011;20121;51.910;8.406;2023-02-18T12:01:34;4.00;;;3.20;;
33814;SDS011;20121;51.910;8.406;2023-02-18T12:04:15;2.08;;;1.88;;
33814;SDS011;20121;51.910;8.406;2023-02-18T12:09:36;3.13;;;1.83;;
33814;SDS011;20121;51.910;8.406;2023-02-18T12:12:16;5.78;;;2.03;;
33814;SDS011;20121;51.910;8.406;2023-02-18T12:14:48;2.75;;;2.40;;
33814;SDS011;20121;51.910;8.406;2023-02-18T12:20:31;3.45;;;3.13;;
33814;SDS011;20121;51.910;8.406;2023-02-18T12:37:12;1.20;;;1.10;;
33814;SDS011;20121;51.910;8.406;2023-02-18T12:40:02;3.75;;;1.92;;
33814;SDS011;20121;51.910;8.406;2023-02-18T12:51:14;1.30;;;1.20;;
33814;SDS011;20121;51.910;8.406;2023-02-18T12:56:33;1.92;;;1.75;;
33814;SDS011;20121;51.910;8.406;2023-02-18T12:59:16;1.95;;;1.40;;
33814;SDS011;20121;51.910;8.406;2023-02-18T13:05:11;2.22;;;1.70;;
33814;SDS011;20121;51.910;8.406;2023-02-18T13:13:24;1.80;;;1.23;;
33814;SDS011;20121;51.910;8.406;2023-02-18T13:15:59;2.28;;;1.23;;
33814;SDS011;20121;51.910;8.406;2023-02-18T13:18:36;2.45;;;2.05;;
33814;SDS011;20121;51.910;8.406;2023-02-18T13:21:14;1.77;;;1.40;;
33814;SDS011;20121;51.910;8.406;2023-02-18T13:23:57;1.55;;;1.45;;
33814;SDS011;20121;51.910;8.406;2023-02-18T13:26:25;3.58;;;2.15;;
33814;SDS011;20121;51.910;8.406;2023-02-18T13:34:35;2.08;;;1.98;;
33814;SDS011;20121;51.910;8.406;2023-02-18T13:39:59;6.00;;;2.40;;
33814;SDS011;20121;51.910;8.406;2023-02-18T13:52:49;2.53;;;1.80;;
33814;SDS011;20121;51.910;8.406;2023-02-18T13:55:21;2.50;;;1.90;;
33814;SDS011;20121;51.910;8.406;2023-02-18T13:57:55;8.55;;;2.00;;
33814;SDS011;20121;51.910;8.406;2023-02-18T14:00:24;5.35;;;2.22;;
33814;SDS011;20121;51.910;8.406;2023-02-18T14:03:00;5.18;;;4.78;;
33814;SDS011;20121;51.910;8.406;2023-02-18T14:05:43;2.35;;;1.98;;
33814;SDS011;20121;51.910;8.406;2023-02-18T14:08:27;2.07;;;1.43;;
33814;SDS011;20121;51.910;8.406;2023-02-18T14:11:29;2.80;;;2.60;;
33814;SDS011;20121;51.910;8.406;2023-02-18T14:13:51;9.50;;;2.55;;
33814;SDS011;20121;51.910;8.406;2023-02-18T14:16:18;5.50;;;2.60;;
33814;SDS011;20121;51.910;8.406;2023-02-18T14:28:42;2.13;;;1.92;;
33814;SDS011;20121;51.910;8.406;2023-02-18T14:36:59;2.88;;;2.30;;
33814;SDS011;20121;51.910;8.406;2023-02-18T14:48:06;2.45;;;2.03;;
33814;SDS011;20121;51.910;8.406;2023-02-18T14:51:04;6.07;;;2.17;;
33814;SDS011;20121;51.910;8.406;2023-02-18T14:53:29;4.83;;;2.27;;
33814;SDS011;20121;51.910;8.406;2023-02-18T14:55:57;1.65;;;1.52;;
33814;SDS011;20121;51.910;8.406;2023-02-18T14:58:33;2.22;;;1.90;;
33814;SDS011;20121;51.910;8.406;2023-02-18T15:01:45;2.95;;;2.35;;
33814;SDS011;20121;51.910;8.406;2023-02-18T15:03:54;2.40;;;1.55;;
33814;SDS011;20121;51.910;8.406;2023-02-18T15:06:22;2.65;;;2.45;;
33814;SDS011;20121;51.910;8.406;2023-02-18T15:08:48;2.30;;;1.80;;
33814;SDS011;20121;51.910;8.406;2023-02-18T15:11:14;3.70;;;2.13;;
33814;SDS011;20121;51.910;8.406;2023-02-18T15:13:41;3.08;;;1.67;;
33814;SDS011;20121;51.910;8.406;2023-02-18T15:16:08;2.30;;;2.10;;
33814;SDS011;20121;51.910;8.406;2023-02-18T15:19:04;1.63;;;1.52;;
33814;SDS011;20121;51.910;8.406;2023-02-18T15:21:34;2.60;;;2.28;;
33814;SDS011;20121;51.910;8.406;2023-02-18T15:24:08;1.73;;;1.63;;
33814;SDS011;20121;51.910;8.406;2023-02-18T15:26:42;2.28;;;2.13;;
33814;SDS011;20121;51.910;8.406;2023-02-18T15:29:20;2.42;;;1.40;;
33814;SDS011;20121;51.910;8.406;2023-02-18T15:31:48;5.50;;;1.25;;
33814;SDS011;20121;51.910;8.406;2023-02-18T15:34:58;5.63;;;2.83;;
33814;SDS011;20121;51.910;8.406;2023-02-18T15:37:08;3.63;;;1.95;;
33814;SDS011;20121;51.910;8.406;2023-02-18T15:39:37;1.85;;;1.30;;
33814;SDS011;20121;51.910;8.406;2023-02-18T15:42:08;2.05;;;1.83;;
33814;SDS011;20121;51.910;8.406;2023-02-18T15:44:37;3.20;;;2.30;;
33814;SDS011;20121;51.910;8.406;2023-02-18T15:47:08;2.08;;;1.65;;
33814;SDS011;20121;51.910;8.406;2023-02-18T15:49:35;3.70;;;1.70;;
33814;SDS011;20121;51.910;8.406;2023-02-18T15:52:03;2.15;;;1.92;;
33814;SDS011;20121;51.910;8.406;2023-02-18T15:54:30;2.72;;;2.05;;
33814;SDS011;20121;51.910;8.406;2023-02-18T15:56:59;5.63;;;2.47;;
33814;SDS011;20121;51.910;8.406;2023-02-18T15:59:27;1.65;;;1.55;;
33814;SDS011;20121;51.910;8.406;2023-02-18T16:02:01;2.55;;;2.35;;
33814;SDS011;20121;51.910;8.406;2023-02-18T16:04:46;1.48;;;1.08;;
33814;SDS011;20121;51.910;8.406;2023-02-18T16:07:20;6.57;;;1.75;;
33814;SDS011;20121;51.910;8.406;2023-02-18T16:12:46;4.25;;;1.92;;
33814;SDS011;20121;51.910;8.406;2023-02-18T16:15:16;1.88;;;1.60;;
33814;SDS011;20121;51.910;8.406;2023-02-18T16:17:49;1.40;;;1.30;;
33814;SDS011;20121;51.910;8.406;2023-02-18T16:22:45;2.97;;;1.30;;
33814;SDS011;20121;51.910;8.406;2023-02-18T16:25:20;2.38;;;2.17;;
33814;SDS011;20121;51.910;8.406;2023-02-18T16:30:23;2.95;;;2.00;;
33814;SDS011;20121;51.910;8.406;2023-02-18T16:32:51;1.67;;;1.58;;
33814;SDS011;20121;51.910;8.406;2023-02-18T16:35:18;2.13;;;1.52;;
33814;SDS011;20121;51.910;8.406;2023-02-18T16:37:45;2.22;;;1.80;;
33814;SDS011;20121;51.910;8.406;2023-02-18T16:40:30;2.13;;;1.60;;
33814;SDS011;20121;51.910;8.406;2023-02-18T16:43:23;2.40;;;1.73;;
33814;SDS011;20121;51.910;8.406;2023-02-18T16:45:49;6.07;;;1.63;;
33814;SDS011;20121;51.910;8.406;2023-02-18T16:51:01;2.10;;;1.90;;
33814;SDS011;20121;51.910;8.406;2023-02-18T16:53:29;4.47;;;2.53;;
33814;SDS011;20121;51.910;8.406;2023-02-18T16:55:55;5.47;;;2.77;;
33814;SDS011;20121;51.910;8.406;2023-02-18T16:58:21;3.57;;;2.73;;
33814;SDS011;20121;51.910;8.406;2023-02-18T17:00:46;3.03;;;2.83;;
33814;SDS011;20121;51.910;8.406;2023-02-18T17:03:15;2.67;;;2.42;;
33814;SDS011;20121;51.910;8.406;2023-02-18T17:05:40;2.90;;;2.23;;
33814;SDS011;20121;51.910;8.406;2023-02-18T17:08:19;5.87;;;3.00;;
33814;SDS011;20121;51.910;8.406;2023-02-18T17:10:50;2.47;;;1.98;;
33814;SDS011;20121;51.910;8.406;2023-02-18T17:13:21;3.60;;;2.20;;
33814;SDS011;20121;51.910;8.406;2023-02-18T17:15:49;4.43;;;2.25;;
33814;SDS011;20121;51.910;8.406;2023-02-18T17:18:17;6.30;;;2.38;;
33814;SDS011;20121;51.910;8.406;2023-02-18T17:20:43;4.05;;;2.38;;
33814;SDS011;20121;51.910;8.406;2023-02-18T17:23:12;2.35;;;2.13;;
33814;SDS011;20121;51.910;8.406;2023-02-18T17:25:39;4.32;;;2.35;;
33814;SDS011;20121;51.910;8.406;2023-02-18T17:28:06;3.60;;;2.22;;
33814;SDS011;20121;51.910;8.406;2023-02-18T17:30:34;4.53;;;2.92;;
33814;SDS011;20121;51.910;8.406;2023-02-18T17:33:02;8.40;;;3.45;;
33814;SDS011;20121;51.910;8.406;2023-02-18T17:35:28;3.25;;;2.95;;
33814;SDS011;20121;51.910;8.406;2023-02-18T17:37:54;6.82;;;3.40;;